sensor_id;sensor_type;location;lat;lon;timestamp;temperature;humidity
23731;DHT22;12046;44.702;10.622;2023-05-24T00:00:39;21.70;99.90
23731;DHT22;12046;44.702;10.622;2023-05-24T00:03:05;21.70;99.90
23731;DHT22;12046;44.702;10.622;2023-05-24T00:05:32;21.70;99.90
23731;DHT22;12046;44.702;10.622;2023-05-24T00:07:58;21.60;99.90
23731;DHT22;12046;44.702;10.622;2023-05-24T00:10:25;21.60;99.90
23731;DHT22;12046;44.702;10.622;2023-05-24T00:12:51;21.50;99.90
23731;DHT22;12046;44.702;10.622;2023-05-24T00:15:17;21.50;99.90
23731;DHT22;12046;44.702;10.622;2023-05-24T00:17:42;21.40;99.90
23731;DHT22;12046;44.702;10.622;2023-05-24T00:20:09;21.30;99.90
23731;DHT22;12046;44.702;10.622;2023-05-24T00:22:39;21.30;99.90
23731;DHT22;12046;44.702;10.622;2023-05-24T00:25:06;21.20;99.90
23731;DHT22;12046;44.702;10.622;2023-05-24T00:27:32;21.10;99.90
23731;DHT22;12046;44.702;10.622;2023-05-24T00:29:58;21.10;99.90
23731;DHT22;12046;44.702;10.622;2023-05-24T00:32:24;21.00;99.90
23731;DHT22;12046;44.702;10.622;2023-05-24T00:34:49;21.00;99.90
23731;DHT22;12046;44.702;10.622;2023-05-24T00:37:15;21.00;99.90
23731;DHT22;12046;44.702;10.622;2023-05-24T00:39:42;20.90;99.90
23731;DHT22;12046;44.702;10.622;2023-05-24T00:42:08;20.80;99.90
23731;DHT22;12046;44.702;10.622;2023-05-24T00:44:34;20.80;99.90
23731;DHT22;12046;44.702;10.622;2023-05-24T00:47:00;20.80;99.90
23731;DHT22;12046;44.702;10.622;2023-05-24T00:49:26;20.80;99.90
23731;DHT22;12046;44.702;10.622;2023-05-24T00:51:52;20.70;99.90
23731;DHT22;12046;44.702;10.622;2023-05-24T00:54:19;20.70;99.90
23731;DHT22;12046;44.702;10.622;2023-05-24T00:56:47;20.70;99.90
23731;DHT22;12046;44.702;10.622;2023-05-24T00:59:13;20.60;99.90
23731;DHT22;12046;44.702;10.622;2023-05-24T01:01:39;20.60;99.90
23731;DHT22;12046;44.702;10.622;2023-05-24T01:04:06;20.50;99.90
23731;DHT22;12046;44.702;10.622;2023-05-24T01:06:49;20.50;99.90
23731;DHT22;12046;44.702;10.622;2023-05-24T01:15:07;20.20;99.90
23731;DHT22;12046;44.702;10.622;2023-05-24T01:17:45;20.10;99.90
23731;DHT22;12046;44.702;10.622;2023-05-24T01:20:14;20.10;99.90
23731;DHT22;12046;44.702;10.622;2023-05-24T01:23:13;20.00;99.90
23731;DHT22;12046;44.702;10.622;2023-05-24T01:25:59;19.90;99.90
23731;DHT22;12046;44.702;10.622;2023-05-24T01:28:27;19.90;99.90
23731;DHT22;12046;44.702;10.622;2023-05-24T01:30:54;19.80;99.90
23731;DHT22;12046;44.702;10.622;2023-05-24T01:33:20;19.70;99.90
23731;DHT22;12046;44.702;10.622;2023-05-24T01:35:46;19.60;99.90
23731;DHT22;12046;44.702;10.622;2023-05-24T01:38:12;19.50;99.90
23731;DHT22;12046;44.702;10.622;2023-05-24T01:40:39;19.50;99.90
23731;DHT22;12046;44.702;10.622;2023-05-24T01:43:22;19.30;99.90
23731;DHT22;12046;44.702;10.622;2023-05-24T01:46:05;19.20;99.90
23731;DHT22;12046;44.702;10.622;2023-05-24T01:51:30;19.00;99.90
23731;DHT22;12046;44.702;10.622;2023-05-24T01:54:01;18.80;99.90
23731;DHT22;12046;44.702;10.622;2023-05-24T01:56:29;18.70;99.90
23731;DHT22;12046;44.702;10.622;2023-05-24T01:58:58;18.70;99.90
23731;DHT22;12046;44.702;10.622;2023-05-24T02:01:25;18.60;99.90
23731;DHT22;12046;44.702;10.622;2023-05-24T02:03:51;18.50;99.90
23731;DHT22;12046;44.702;10.622;2023-05-24T02:06:17;18.50;99.90
23731;DHT22;12046;44.702;10.622;2023-05-24T02:08:42;18.50;99.90
23731;DHT22;12046;44.702;10.622;2023-05-24T02:11:08;18.50;99.90
23731;DHT22;12046;44.702;10.622;2023-05-24T02:13:34;18.60;99.90
23731;DHT22;12046;44.702;10.622;2023-05-24T02:16:00;18.60;99.90
23731;DHT22;12046;44.702;10.622;2023-05-24T02:18:26;18.60;99.90
23731;DHT22;12046;44.702;10.622;2023-05-24T02:20:52;18.70;99.90
23731;DHT22;12046;44.702;10.622;2023-05-24T02:23:18;18.70;99.90
23731;DHT22;12046;44.702;10.622;2023-05-24T02:25:43;18.70;99.90
23731;DHT22;12046;44.702;10.622;2023-05-24T02:28:09;18.80;99.90
23731;DHT22;12046;44.702;10.622;2023-05-24T02:30:35;18.80;99.90
23731;DHT22;12046;44.702;10.622;2023-05-24T02:33:01;18.80;99.90
23731;DHT22;12046;44.702;10.622;2023-05-24T02:35:28;18.80;99.90
23731;DHT22;12046;44.702;10.622;2023-05-24T02:37:53;18.80;99.90
23731;DHT22;12046;44.702;10.622;2023-05-24T02:40:19;18.90;99.90
23731;DHT22;12046;44.702;10.622;2023-05-24T02:42:45;18.80;99.90
23731;DHT22;12046;44.702;10.622;2023-05-24T02:45:11;18.80;99.90
23731;DHT22;12046;44.702;10.622;2023-05-24T02:47:36;18.80;99.90
23731;DHT22;12046;44.702;10.622;2023-05-24T02:50:02;18.80;99.90
23731;DHT22;12046;44.702;10.622;2023-05-24T02:52:28;18.70;99.90
23731;DHT22;12046;44.702;10.622;2023-05-24T02:54:54;18.70;99.90
23731;DHT22;12046;44.702;10.622;2023-05-24T02:57:19;18.70;99.90
23731;DHT22;12046;44.702;10.622;2023-05-24T02:59:46;18.70;99.90
23731;DHT22;12046;44.702;10.622;2023-05-24T03:02:11;18.70;99.90
23731;DHT22;12046;44.702;10.622;2023-05-24T03:04:42;18.70;99.90
23731;DHT22;12046;44.702;10.622;2023-05-24T03:07:08;18.80;99.90
23731;DHT22;12046;44.702;10.622;2023-05-24T03:09:35;18.80;99.90
23731;DHT22;12046;44.702;10.622;2023-05-24T03:12:01;18.80;99.90
23731;DHT22;12046;44.702;10.622;2023-05-24T03:14:26;18.80;99.90
23731;DHT22;12046;44.702;10.622;2023-05-24T03:16:52;18.80;99.90
23731;DHT22;12046;44.702;10.622;2023-05-24T03:19:18;18.90;99.90
23731;DHT22;12046;44.702;10.622;2023-05-24T03:21:44;18.90;99.90
23731;DHT22;12046;44.702;10.622;2023-05-24T03:24:09;18.90;99.90
23731;DHT22;12046;44.702;10.622;2023-05-24T03:26:41;18.90;99.90
23731;DHT22;12046;44.702;10.622;2023-05-24T03:29:06;19.00;99.90
23731;DHT22;12046;44.702;10.622;2023-05-24T03:31:32;19.00;99.90
23731;DHT22;12046;44.702;10.622;2023-05-24T03:33:58;19.00;99.90
23731;DHT22;12046;44.702;10.622;2023-05-24T03:36:24;19.00;99.90
23731;DHT22;12046;44.702;10.622;2023-05-24T03:38:50;19.00;99.90
23731;DHT22;12046;44.702;10.622;2023-05-24T03:41:16;19.00;99.90
23731;DHT22;12046;44.702;10.622;2023-05-24T03:43:42;19.00;99.90
23731;DHT22;12046;44.702;10.622;2023-05-24T03:46:07;18.90;99.90
23731;DHT22;12046;44.702;10.622;2023-05-24T03:48:33;18.90;99.90
23731;DHT22;12046;44.702;10.622;2023-05-24T03:50:59;18.90;99.90
23731;DHT22;12046;44.702;10.622;2023-05-24T03:53:25;18.90;99.90
23731;DHT22;12046;44.702;10.622;2023-05-24T03:55:50;18.90;99.90
23731;DHT22;12046;44.702;10.622;2023-05-24T03:58:16;18.90;99.90
23731;DHT22;12046;44.702;10.622;2023-05-24T04:00:42;18.90;99.90
23731;DHT22;12046;44.702;10.622;2023-05-24T04:03:08;19.00;99.90
23731;DHT22;12046;44.702;10.622;2023-05-24T04:05:34;19.00;99.90
23731;DHT22;12046;44.702;10.622;2023-05-24T04:07:59;19.00;99.90
23731;DHT22;12046;44.702;10.622;2023-05-24T04:10:26;19.10;99.90
23731;DHT22;12046;44.702;10.622;2023-05-24T04:12:51;19.10;99.90
23731;DHT22;12046;44.702;10.622;2023-05-24T04:15:17;19.20;99.90
23731;DHT22;12046;44.702;10.622;2023-05-24T04:17:44;19.20;99.90
23731;DHT22;12046;44.702;10.622;2023-05-24T04:20:11;19.20;99.90
23731;DHT22;12046;44.702;10.622;2023-05-24T04:22:38;19.20;99.90
23731;DHT22;12046;44.702;10.622;2023-05-24T04:25:04;19.30;99.90
23731;DHT22;12046;44.702;10.622;2023-05-24T04:27:30;19.30;99.90
23731;DHT22;12046;44.702;10.622;2023-05-24T04:29:57;19.30;99.90
23731;DHT22;12046;44.702;10.622;2023-05-24T04:32:22;19.30;99.90
23731;DHT22;12046;44.702;10.622;2023-05-24T04:34:49;19.30;99.90
23731;DHT22;12046;44.702;10.622;2023-05-24T04:37:17;19.30;99.90
23731;DHT22;12046;44.702;10.622;2023-05-24T04:39:44;19.40;99.90
23731;DHT22;12046;44.702;10.622;2023-05-24T04:42:12;19.40;99.90
23731;DHT22;12046;44.702;10.622;2023-05-24T04:44:41;19.50;99.90
23731;DHT22;12046;44.702;10.622;2023-05-24T04:47:07;19.50;99.90
23731;DHT22;12046;44.702;10.622;2023-05-24T04:49:34;19.60;99.90
23731;DHT22;12046;44.702;10.622;2023-05-24T04:52:00;19.60;99.90
23731;DHT22;12046;44.702;10.622;2023-05-24T04:54:25;19.70;99.90
23731;DHT22;12046;44.702;10.622;2023-05-24T04:56:51;19.70;99.90
23731;DHT22;12046;44.702;10.622;2023-05-24T04:59:17;19.80;99.90
23731;DHT22;12046;44.702;10.622;2023-05-24T05:01:44;19.90;99.90
23731;DHT22;12046;44.702;10.622;2023-05-24T05:04:10;19.90;99.90
23731;DHT22;12046;44.702;10.622;2023-05-24T05:06:36;20.00;99.90
23731;DHT22;12046;44.702;10.622;2023-05-24T05:09:08;20.00;99.90
23731;DHT22;12046;44.702;10.622;2023-05-24T05:11:35;20.10;99.90
23731;DHT22;12046;44.702;10.622;2023-05-24T05:14:01;20.20;99.90
23731;DHT22;12046;44.702;10.622;2023-05-24T05:16:27;20.20;99.90
23731;DHT22;12046;44.702;10.622;2023-05-24T05:18:53;20.30;99.90
23731;DHT22;12046;44.702;10.622;2023-05-24T05:21:19;20.30;99.90
23731;DHT22;12046;44.702;10.622;2023-05-24T05:23:45;20.40;99.90
23731;DHT22;12046;44.702;10.622;2023-05-24T05:26:11;20.50;99.90
23731;DHT22;12046;44.702;10.622;2023-05-24T05:28:37;20.50;99.90
23731;DHT22;12046;44.702;10.622;2023-05-24T05:31:03;20.50;99.90
23731;DHT22;12046;44.702;10.622;2023-05-24T05:33:32;20.60;99.90
23731;DHT22;12046;44.702;10.622;2023-05-24T05:35:59;20.70;99.90
23731;DHT22;12046;44.702;10.622;2023-05-24T05:38:25;20.70;99.90
23731;DHT22;12046;44.702;10.622;2023-05-24T05:40:51;20.80;99.90
23731;DHT22;12046;44.702;10.622;2023-05-24T05:43:16;20.90;99.90
23731;DHT22;12046;44.702;10.622;2023-05-24T05:45:42;21.00;99.90
23731;DHT22;12046;44.702;10.622;2023-05-24T05:48:08;21.00;99.90
23731;DHT22;12046;44.702;10.622;2023-05-24T05:50:34;21.10;99.90
23731;DHT22;12046;44.702;10.622;2023-05-24T05:52:59;21.20;99.90
23731;DHT22;12046;44.702;10.622;2023-05-24T05:55:25;21.30;99.90
23731;DHT22;12046;44.702;10.622;2023-05-24T05:57:51;21.30;99.90
23731;DHT22;12046;44.702;10.622;2023-05-24T06:00:17;21.40;99.90
23731;DHT22;12046;44.702;10.622;2023-05-24T06:02:43;21.50;99.90
23731;DHT22;12046;44.702;10.622;2023-05-24T06:05:08;21.50;99.90
23731;DHT22;12046;44.702;10.622;2023-05-24T06:07:35;21.60;99.90
23731;DHT22;12046;44.702;10.622;2023-05-24T06:10:02;21.70;99.90
23731;DHT22;12046;44.702;10.622;2023-05-24T06:12:28;21.70;99.90
23731;DHT22;12046;44.702;10.622;2023-05-24T06:14:53;21.70;99.90
23731;DHT22;12046;44.702;10.622;2023-05-24T06:17:22;21.70;99.90
23731;DHT22;12046;44.702;10.622;2023-05-24T06:19:49;21.80;99.90
23731;DHT22;12046;44.702;10.622;2023-05-24T06:22:18;21.90;99.90
23731;DHT22;12046;44.702;10.622;2023-05-24T06:24:44;22.00;99.90
23731;DHT22;12046;44.702;10.622;2023-05-24T06:27:10;22.00;99.90
23731;DHT22;12046;44.702;10.622;2023-05-24T06:29:36;22.10;99.90
23731;DHT22;12046;44.702;10.622;2023-05-24T06:32:03;22.20;99.90
23731;DHT22;12046;44.702;10.622;2023-05-24T06:34:29;22.30;99.90
23731;DHT22;12046;44.702;10.622;2023-05-24T06:36:54;22.40;99.90
23731;DHT22;12046;44.702;10.622;2023-05-24T06:39:20;22.40;99.90
23731;DHT22;12046;44.702;10.622;2023-05-24T06:41:47;22.50;99.90
23731;DHT22;12046;44.702;10.622;2023-05-24T06:44:16;22.60;99.90
23731;DHT22;12046;44.702;10.622;2023-05-24T06:46:41;22.70;99.90
23731;DHT22;12046;44.702;10.622;2023-05-24T06:49:07;22.70;99.90
23731;DHT22;12046;44.702;10.622;2023-05-24T06:51:33;22.80;99.90
23731;DHT22;12046;44.702;10.622;2023-05-24T06:53:59;22.90;99.90
23731;DHT22;12046;44.702;10.622;2023-05-24T06:56:25;22.90;99.90
23731;DHT22;12046;44.702;10.622;2023-05-24T06:58:51;23.00;99.90
23731;DHT22;12046;44.702;10.622;2023-05-24T07:01:17;23.10;99.90
23731;DHT22;12046;44.702;10.622;2023-05-24T07:03:43;23.20;99.90
23731;DHT22;12046;44.702;10.622;2023-05-24T07:06:09;23.20;99.90
23731;DHT22;12046;44.702;10.622;2023-05-24T07:08:39;23.40;99.90
23731;DHT22;12046;44.702;10.622;2023-05-24T07:11:06;23.40;99.90
23731;DHT22;12046;44.702;10.622;2023-05-24T07:13:32;23.50;99.90
23731;DHT22;12046;44.702;10.622;2023-05-24T07:15:58;23.60;99.90
23731;DHT22;12046;44.702;10.622;2023-05-24T07:18:24;23.80;99.90
23731;DHT22;12046;44.702;10.622;2023-05-24T07:20:50;23.90;99.90
23731;DHT22;12046;44.702;10.622;2023-05-24T07:23:16;23.90;99.90
23731;DHT22;12046;44.702;10.622;2023-05-24T07:25:41;24.00;99.90
23731;DHT22;12046;44.702;10.622;2023-05-24T07:28:07;24.10;99.90
23731;DHT22;12046;44.702;10.622;2023-05-24T07:30:33;24.10;99.90
23731;DHT22;12046;44.702;10.622;2023-05-24T07:33:00;24.20;99.90
23731;DHT22;12046;44.702;10.622;2023-05-24T07:35:26;24.30;99.90
23731;DHT22;12046;44.702;10.622;2023-05-24T07:37:53;24.40;99.90
23731;DHT22;12046;44.702;10.622;2023-05-24T07:40:19;24.50;99.90
23731;DHT22;12046;44.702;10.622;2023-05-24T07:42:45;24.60;99.90
23731;DHT22;12046;44.702;10.622;2023-05-24T07:45:12;24.60;99.90
23731;DHT22;12046;44.702;10.622;2023-05-24T07:47:38;24.70;99.80
23731;DHT22;12046;44.702;10.622;2023-05-24T07:50:04;24.70;99.50
23731;DHT22;12046;44.702;10.622;2023-05-24T07:52:30;24.80;99.60
23731;DHT22;12046;44.702;10.622;2023-05-24T07:54:56;24.90;98.80
23731;DHT22;12046;44.702;10.622;2023-05-24T07:57:22;25.00;98.50
23731;DHT22;12046;44.702;10.622;2023-05-24T07:59:48;25.00;98.30
23731;DHT22;12046;44.702;10.622;2023-05-24T08:02:14;25.20;98.20
23731;DHT22;12046;44.702;10.622;2023-05-24T08:04:41;25.20;98.00
23731;DHT22;12046;44.702;10.622;2023-05-24T08:07:11;25.30;98.10
23731;DHT22;12046;44.702;10.622;2023-05-24T08:09:36;25.40;97.80
23731;DHT22;12046;44.702;10.622;2023-05-24T08:12:04;25.50;97.70
23731;DHT22;12046;44.702;10.622;2023-05-24T08:14:30;25.60;97.60
23731;DHT22;12046;44.702;10.622;2023-05-24T08:16:56;25.60;97.40
23731;DHT22;12046;44.702;10.622;2023-05-24T08:19:21;25.60;97.20
23731;DHT22;12046;44.702;10.622;2023-05-24T08:21:48;25.70;97.10
23731;DHT22;12046;44.702;10.622;2023-05-24T08:24:14;25.80;96.90
23731;DHT22;12046;44.702;10.622;2023-05-24T08:26:39;25.80;96.90
23731;DHT22;12046;44.702;10.622;2023-05-24T08:29:05;25.90;96.70
23731;DHT22;12046;44.702;10.622;2023-05-24T08:31:31;26.00;96.70
23731;DHT22;12046;44.702;10.622;2023-05-24T08:34:00;26.10;96.60
23731;DHT22;12046;44.702;10.622;2023-05-24T08:36:27;26.10;96.50
23731;DHT22;12046;44.702;10.622;2023-05-24T08:38:52;26.20;96.30
23731;DHT22;12046;44.702;10.622;2023-05-24T08:41:18;26.30;96.20
23731;DHT22;12046;44.702;10.622;2023-05-24T08:43:46;26.30;96.10
23731;DHT22;12046;44.702;10.622;2023-05-24T08:46:15;26.40;96.00
23731;DHT22;12046;44.702;10.622;2023-05-24T08:48:44;26.50;95.90
23731;DHT22;12046;44.702;10.622;2023-05-24T08:51:13;26.60;95.80
23731;DHT22;12046;44.702;10.622;2023-05-24T08:53:40;26.60;95.70
23731;DHT22;12046;44.702;10.622;2023-05-24T08:56:06;26.70;95.60
23731;DHT22;12046;44.702;10.622;2023-05-24T08:58:36;26.80;95.50
23731;DHT22;12046;44.702;10.622;2023-05-24T09:01:03;26.90;95.50
23731;DHT22;12046;44.702;10.622;2023-05-24T09:03:30;26.90;95.40
23731;DHT22;12046;44.702;10.622;2023-05-24T09:05:57;27.00;95.30
23731;DHT22;12046;44.702;10.622;2023-05-24T09:08:25;27.10;95.20
23731;DHT22;12046;44.702;10.622;2023-05-24T09:10:54;27.20;95.00
23731;DHT22;12046;44.702;10.622;2023-05-24T09:13:22;27.30;94.60
23731;DHT22;12046;44.702;10.622;2023-05-24T09:15:49;27.30;94.40
23731;DHT22;12046;44.702;10.622;2023-05-24T09:18:15;27.30;94.40
23731;DHT22;12046;44.702;10.622;2023-05-24T09:20:40;27.40;94.30
23731;DHT22;12046;44.702;10.622;2023-05-24T09:23:06;27.40;94.20
23731;DHT22;12046;44.702;10.622;2023-05-24T09:25:33;27.50;94.10
23731;DHT22;12046;44.702;10.622;2023-05-24T09:28:05;27.50;93.80
23731;DHT22;12046;44.702;10.622;2023-05-24T09:30:31;27.50;93.70
23731;DHT22;12046;44.702;10.622;2023-05-24T09:32:58;27.60;93.60
23731;DHT22;12046;44.702;10.622;2023-05-24T09:35:25;27.70;93.60
23731;DHT22;12046;44.702;10.622;2023-05-24T09:37:56;27.70;93.60
23731;DHT22;12046;44.702;10.622;2023-05-24T09:40:25;27.80;93.50
23731;DHT22;12046;44.702;10.622;2023-05-24T09:43:08;27.90;93.20
23731;DHT22;12046;44.702;10.622;2023-05-24T09:45:44;28.00;92.70
23731;DHT22;12046;44.702;10.622;2023-05-24T09:48:15;28.10;92.70
23731;DHT22;12046;44.702;10.622;2023-05-24T09:50:43;28.20;92.50
23731;DHT22;12046;44.702;10.622;2023-05-24T09:53:16;28.20;92.40
23731;DHT22;12046;44.702;10.622;2023-05-24T09:55:43;28.30;91.90
23731;DHT22;12046;44.702;10.622;2023-05-24T09:58:09;28.30;91.60
23731;DHT22;12046;44.702;10.622;2023-05-24T10:00:40;28.40;91.50
23731;DHT22;12046;44.702;10.622;2023-05-24T10:03:08;28.40;91.40
23731;DHT22;12046;44.702;10.622;2023-05-24T10:05:36;28.50;91.40
23731;DHT22;12046;44.702;10.622;2023-05-24T10:08:03;28.50;91.30
23731;DHT22;12046;44.702;10.622;2023-05-24T10:10:34;28.60;91.30
23731;DHT22;12046;44.702;10.622;2023-05-24T10:13:00;28.60;91.10
23731;DHT22;12046;44.702;10.622;2023-05-24T10:15:27;28.60;91.10
23731;DHT22;12046;44.702;10.622;2023-05-24T10:17:53;28.60;91.20
23731;DHT22;12046;44.702;10.622;2023-05-24T10:20:19;28.70;91.30
23731;DHT22;12046;44.702;10.622;2023-05-24T10:22:47;28.70;91.30
23731;DHT22;12046;44.702;10.622;2023-05-24T10:25:20;28.90;91.20
23731;DHT22;12046;44.702;10.622;2023-05-24T10:27:48;28.90;91.10
23731;DHT22;12046;44.702;10.622;2023-05-24T10:32:58;29.00;90.50
23731;DHT22;12046;44.702;10.622;2023-05-24T10:35:24;29.10;90.70
23731;DHT22;12046;44.702;10.622;2023-05-24T10:37:52;29.10;90.70
23731;DHT22;12046;44.702;10.622;2023-05-24T10:40:20;29.10;90.60
23731;DHT22;12046;44.702;10.622;2023-05-24T10:42:47;29.20;90.70
23731;DHT22;12046;44.702;10.622;2023-05-24T10:47:48;29.40;90.90
23731;DHT22;12046;44.702;10.622;2023-05-24T10:50:21;29.40;90.90
23731;DHT22;12046;44.702;10.622;2023-05-24T10:52:50;29.50;90.80
23731;DHT22;12046;44.702;10.622;2023-05-24T10:55:18;29.60;90.70
23731;DHT22;12046;44.702;10.622;2023-05-24T10:57:44;29.60;90.30
23731;DHT22;12046;44.702;10.622;2023-05-24T11:02:50;29.70;90.00
23731;DHT22;12046;44.702;10.622;2023-05-24T11:05:33;29.80;90.20
23731;DHT22;12046;44.702;10.622;2023-05-24T11:08:09;29.80;90.50
23731;DHT22;12046;44.702;10.622;2023-05-24T11:10:35;29.90;90.50
23731;DHT22;12046;44.702;10.622;2023-05-24T11:13:01;29.90;90.50
23731;DHT22;12046;44.702;10.622;2023-05-24T11:15:29;29.90;90.30
23731;DHT22;12046;44.702;10.622;2023-05-24T11:20:41;30.00;90.40
23731;DHT22;12046;44.702;10.622;2023-05-24T11:23:12;30.00;90.30
23731;DHT22;12046;44.702;10.622;2023-05-24T11:25:38;30.10;90.10
23731;DHT22;12046;44.702;10.622;2023-05-24T11:28:09;30.10;90.00
23731;DHT22;12046;44.702;10.622;2023-05-24T11:30:53;30.10;89.90
23731;DHT22;12046;44.702;10.622;2023-05-24T11:33:20;30.20;89.80
23731;DHT22;12046;44.702;10.622;2023-05-24T11:35:52;30.20;89.50
23731;DHT22;12046;44.702;10.622;2023-05-24T11:38:19;30.20;89.40
23731;DHT22;12046;44.702;10.622;2023-05-24T11:40:47;30.30;89.70
23731;DHT22;12046;44.702;10.622;2023-05-24T11:43:18;30.40;89.50
23731;DHT22;12046;44.702;10.622;2023-05-24T11:45:47;30.40;88.90
23731;DHT22;12046;44.702;10.622;2023-05-24T11:48:14;30.40;88.70
23731;DHT22;12046;44.702;10.622;2023-05-24T11:50:42;30.30;88.60
23731;DHT22;12046;44.702;10.622;2023-05-24T11:53:15;30.20;88.80
23731;DHT22;12046;44.702;10.622;2023-05-24T11:55:41;30.20;89.50
23731;DHT22;12046;44.702;10.622;2023-05-24T11:58:23;30.20;89.70
23731;DHT22;12046;44.702;10.622;2023-05-24T12:00:50;30.20;89.70
23731;DHT22;12046;44.702;10.622;2023-05-24T12:03:16;30.30;89.50
23731;DHT22;12046;44.702;10.622;2023-05-24T12:05:42;30.30;89.00
23731;DHT22;12046;44.702;10.622;2023-05-24T12:08:10;30.40;88.50
23731;DHT22;12046;44.702;10.622;2023-05-24T12:10:38;30.50;88.60
23731;DHT22;12046;44.702;10.622;2023-05-24T12:13:21;30.50;88.70
23731;DHT22;12046;44.702;10.622;2023-05-24T12:15:54;30.50;88.40
23731;DHT22;12046;44.702;10.622;2023-05-24T12:18:21;30.50;88.40
23731;DHT22;12046;44.702;10.622;2023-05-24T12:20:48;30.50;88.20
23731;DHT22;12046;44.702;10.622;2023-05-24T12:23:18;30.60;88.80
23731;DHT22;12046;44.702;10.622;2023-05-24T12:25:44;30.60;89.00
23731;DHT22;12046;44.702;10.622;2023-05-24T12:28:12;30.60;88.90
23731;DHT22;12046;44.702;10.622;2023-05-24T12:30:38;30.50;88.90
23731;DHT22;12046;44.702;10.622;2023-05-24T12:33:11;30.50;88.90
23731;DHT22;12046;44.702;10.622;2023-05-24T12:35:40;30.40;88.80
23731;DHT22;12046;44.702;10.622;2023-05-24T12:38:10;30.40;88.80
23731;DHT22;12046;44.702;10.622;2023-05-24T12:40:36;30.20;89.00
23731;DHT22;12046;44.702;10.622;2023-05-24T12:43:03;30.20;89.20
23731;DHT22;12046;44.702;10.622;2023-05-24T12:45:29;30.10;89.10
23731;DHT22;12046;44.702;10.622;2023-05-24T12:47:59;30.10;89.30
23731;DHT22;12046;44.702;10.622;2023-05-24T12:50:27;30.00;89.70
23731;DHT22;12046;44.702;10.622;2023-05-24T12:52:53;30.00;90.10
23731;DHT22;12046;44.702;10.622;2023-05-24T12:55:21;29.90;90.20
23731;DHT22;12046;44.702;10.622;2023-05-24T12:57:48;29.80;90.20
23731;DHT22;12046;44.702;10.622;2023-05-24T13:00:22;29.70;90.20
23731;DHT22;12046;44.702;10.622;2023-05-24T13:02:48;29.60;90.30
23731;DHT22;12046;44.702;10.622;2023-05-24T13:05:14;29.50;90.40
23731;DHT22;12046;44.702;10.622;2023-05-24T13:07:44;29.30;90.20
23731;DHT22;12046;44.702;10.622;2023-05-24T13:10:10;29.10;87.80
23731;DHT22;12046;44.702;10.622;2023-05-24T13:12:36;28.80;87.60
23731;DHT22;12046;44.702;10.622;2023-05-24T13:15:03;28.50;88.20
23731;DHT22;12046;44.702;10.622;2023-05-24T13:17:30;28.10;88.70
23731;DHT22;12046;44.702;10.622;2023-05-24T13:20:00;27.90;89.30
23731;DHT22;12046;44.702;10.622;2023-05-24T13:22:29;27.70;87.80
23731;DHT22;12046;44.702;10.622;2023-05-24T13:24:55;27.40;87.00
23731;DHT22;12046;44.702;10.622;2023-05-24T13:27:21;27.20;87.50
23731;DHT22;12046;44.702;10.622;2023-05-24T13:29:47;27.00;88.50
23731;DHT22;12046;44.702;10.622;2023-05-24T13:32:12;26.80;90.80
23731;DHT22;12046;44.702;10.622;2023-05-24T13:34:38;26.40;92.00
23731;DHT22;12046;44.702;10.622;2023-05-24T13:37:04;26.10;92.50
23731;DHT22;12046;44.702;10.622;2023-05-24T13:39:32;25.70;92.70
23731;DHT22;12046;44.702;10.622;2023-05-24T13:42:00;25.40;92.90
23731;DHT22;12046;44.702;10.622;2023-05-24T13:44:26;25.10;93.00
23731;DHT22;12046;44.702;10.622;2023-05-24T13:46:52;25.00;93.20
23731;DHT22;12046;44.702;10.622;2023-05-24T13:49:18;24.80;93.30
23731;DHT22;12046;44.702;10.622;2023-05-24T13:51:44;24.70;93.40
23731;DHT22;12046;44.702;10.622;2023-05-24T13:54:12;24.60;93.20
23731;DHT22;12046;44.702;10.622;2023-05-24T13:56:38;24.50;92.90
23731;DHT22;12046;44.702;10.622;2023-05-24T13:59:05;24.40;92.60
23731;DHT22;12046;44.702;10.622;2023-05-24T14:01:32;24.30;92.30
23731;DHT22;12046;44.702;10.622;2023-05-24T14:04:01;24.20;92.20
23731;DHT22;12046;44.702;10.622;2023-05-24T14:06:28;24.10;92.00
23731;DHT22;12046;44.702;10.622;2023-05-24T14:08:54;24.10;91.50
23731;DHT22;12046;44.702;10.622;2023-05-24T14:11:20;24.00;91.10
23731;DHT22;12046;44.702;10.622;2023-05-24T14:13:47;24.00;90.50
23731;DHT22;12046;44.702;10.622;2023-05-24T14:16:13;24.00;90.70
23731;DHT22;12046;44.702;10.622;2023-05-24T14:18:39;23.90;91.00
23731;DHT22;12046;44.702;10.622;2023-05-24T14:21:05;23.90;91.40
23731;DHT22;12046;44.702;10.622;2023-05-24T14:23:31;23.80;91.70
23731;DHT22;12046;44.702;10.622;2023-05-24T14:26:01;23.60;92.40
23731;DHT22;12046;44.702;10.622;2023-05-24T14:28:26;23.50;93.00
23731;DHT22;12046;44.702;10.622;2023-05-24T14:30:52;23.40;93.40
23731;DHT22;12046;44.702;10.622;2023-05-24T14:33:18;23.30;93.60
23731;DHT22;12046;44.702;10.622;2023-05-24T14:35:44;23.10;94.00
23731;DHT22;12046;44.702;10.622;2023-05-24T14:38:10;22.90;94.60
23731;DHT22;12046;44.702;10.622;2023-05-24T14:40:37;22.90;95.20
23731;DHT22;12046;44.702;10.622;2023-05-24T14:43:07;22.80;95.60
23731;DHT22;12046;44.702;10.622;2023-05-24T14:45:34;22.80;95.90
23731;DHT22;12046;44.702;10.622;2023-05-24T14:48:03;22.80;96.10
23731;DHT22;12046;44.702;10.622;2023-05-24T14:50:29;22.80;96.30
23731;DHT22;12046;44.702;10.622;2023-05-24T14:52:55;22.80;96.30
23731;DHT22;12046;44.702;10.622;2023-05-24T14:55:21;22.90;96.70
23731;DHT22;12046;44.702;10.622;2023-05-24T14:57:47;22.90;97.10
23731;DHT22;12046;44.702;10.622;2023-05-24T15:00:14;22.90;97.60
23731;DHT22;12046;44.702;10.622;2023-05-24T15:02:40;22.90;97.80
23731;DHT22;12046;44.702;10.622;2023-05-24T15:05:06;22.90;98.00
23731;DHT22;12046;44.702;10.622;2023-05-24T15:07:32;22.90;98.40
23731;DHT22;12046;44.702;10.622;2023-05-24T15:09:58;22.80;98.70
23731;DHT22;12046;44.702;10.622;2023-05-24T15:12:24;22.70;98.90
23731;DHT22;12046;44.702;10.622;2023-05-24T15:14:49;22.60;99.10
23731;DHT22;12046;44.702;10.622;2023-05-24T15:17:15;22.60;99.40
23731;DHT22;12046;44.702;10.622;2023-05-24T15:19:41;22.50;99.60
23731;DHT22;12046;44.702;10.622;2023-05-24T15:22:07;22.50;99.80
23731;DHT22;12046;44.702;10.622;2023-05-24T15:24:33;22.50;99.90
23731;DHT22;12046;44.702;10.622;2023-05-24T15:26:58;22.50;99.90
23731;DHT22;12046;44.702;10.622;2023-05-24T15:29:36;22.40;99.90
23731;DHT22;12046;44.702;10.622;2023-05-24T15:32:03;22.40;99.90
23731;DHT22;12046;44.702;10.622;2023-05-24T15:34:29;22.40;99.90